createdAt,value
2019-03-15T00:01:36.470Z,14.17
2019-03-15T00:04:04.908Z,14.00
2019-03-15T00:06:33.299Z,6.23
2019-03-15T00:09:01.744Z,15.80
2019-03-15T00:11:30.119Z,9.50
2019-03-15T00:13:58.505Z,8.03
2019-03-15T00:16:26.893Z,16.50
2019-03-15T00:18:55.272Z,13.93
2019-03-15T00:21:23.643Z,11.20
2019-03-15T00:23:52.031Z,10.40
2019-03-15T00:26:20.393Z,5.60
2019-03-15T00:28:48.777Z,5.10
2019-03-15T00:31:17.155Z,6.80
2019-03-15T00:33:45.541Z,8.87
2019-03-15T00:36:13.909Z,6.90
2019-03-15T00:38:42.281Z,10.23
2019-03-15T00:41:11.088Z,11.53
2019-03-15T00:43:39.717Z,8.27
2019-03-15T00:46:08.092Z,4.70
2019-03-15T00:48:36.476Z,6.20
2019-03-15T00:51:04.935Z,12.07
2019-03-15T00:53:33.304Z,9.43
2019-03-15T00:56:01.692Z,4.30
2019-03-15T00:58:30.069Z,6.70
2019-03-15T01:00:58.444Z,3.63
2019-03-15T01:03:26.840Z,8.67
2019-03-15T01:05:55.200Z,8.53
2019-03-15T01:08:23.811Z,7.27
2019-03-15T01:10:52.180Z,11.37
2019-03-15T01:13:20.548Z,4.73
2019-03-15T01:15:48.940Z,14.10
2019-03-15T01:18:17.985Z,6.47
2019-03-15T01:20:46.776Z,4.80
2019-03-15T01:23:15.147Z,7.50
2019-03-15T01:25:43.520Z,5.43
2019-03-15T01:28:11.903Z,11.87
2019-03-15T01:30:40.280Z,14.40
2019-03-15T01:33:08.644Z,5.20
2019-03-15T01:35:37.035Z,10.27
2019-03-15T01:38:05.406Z,7.43
2019-03-15T01:40:33.788Z,9.57
2019-03-15T01:43:02.159Z,13.40
2019-03-15T01:45:30.536Z,4.27
2019-03-15T01:47:58.936Z,12.27
2019-03-15T01:50:27.312Z,7.13
2019-03-15T01:52:55.687Z,6.07
2019-03-15T01:55:24.068Z,8.03
2019-03-15T01:57:52.453Z,11.77
2019-03-15T02:00:20.819Z,9.93
2019-03-15T02:02:49.196Z,8.00
2019-03-15T02:05:17.571Z,4.93
2019-03-15T02:07:45.947Z,20.73
2019-03-15T02:10:14.320Z,5.33
2019-03-15T02:12:42.688Z,8.77
2019-03-15T02:15:11.940Z,9.50
2019-03-15T02:17:40.545Z,6.60
2019-03-15T02:20:09.595Z,7.03
2019-03-15T02:22:38.084Z,10.53
2019-03-15T02:25:06.519Z,6.77
2019-03-15T02:27:34.894Z,5.33
2019-03-15T02:30:04.500Z,12.37
2019-03-15T02:32:32.887Z,5.43
2019-03-15T02:35:01.432Z,11.17
2019-03-15T02:37:29.820Z,9.30
2019-03-15T02:39:58.188Z,9.27
2019-03-15T02:42:26.630Z,8.40
2019-03-15T02:44:55.021Z,13.37
2019-03-15T02:47:23.404Z,10.27
2019-03-15T02:49:51.776Z,3.27
2019-03-15T02:52:20.148Z,10.97
2019-03-15T02:54:48.532Z,7.63
2019-03-15T02:57:16.905Z,9.07
2019-03-15T02:59:45.310Z,9.63
2019-03-15T03:02:13.676Z,10.03
2019-03-15T03:04:42.044Z,8.10
2019-03-15T03:07:10.428Z,10.20
2019-03-15T03:09:38.801Z,9.50
2019-03-15T03:12:07.197Z,4.87
2019-03-15T03:14:35.561Z,7.60
2019-03-15T03:17:03.949Z,9.23
2019-03-15T03:19:32.316Z,11.10
2019-03-15T03:22:00.700Z,14.60
2019-03-15T03:24:29.247Z,7.60
2019-03-15T03:26:57.624Z,3.13
2019-03-15T03:29:25.996Z,13.47
2019-03-15T03:31:54.403Z,15.90
2019-03-15T03:34:22.762Z,2.90
2019-03-15T03:36:52.310Z,7.30
2019-03-15T03:39:20.979Z,14.17
2019-03-15T03:41:49.369Z,9.20
2019-03-15T03:44:17.740Z,15.70
2019-03-15T03:46:46.112Z,8.97
2019-03-15T03:49:14.497Z,7.83
2019-03-15T03:51:42.867Z,5.67
2019-03-15T03:54:11.280Z,18.27
2019-03-15T03:56:39.699Z,10.43
2019-03-15T03:59:08.083Z,14.73
2019-03-15T04:01:36.452Z,9.80
2019-03-15T04:04:04.903Z,20.40
2019-03-15T04:06:33.276Z,5.00
2019-03-15T04:09:01.645Z,7.97
2019-03-15T04:11:30.031Z,16.07
2019-03-15T04:13:58.470Z,11.47
2019-03-15T04:16:26.869Z,18.53
2019-03-15T04:18:55.231Z,7.60
2019-03-15T04:21:23.629Z,13.70
2019-03-15T04:23:52.004Z,15.97
2019-03-15T04:26:20.396Z,7.97
2019-03-15T04:28:48.784Z,19.67
2019-03-15T04:31:17.173Z,8.10
2019-03-15T04:33:45.540Z,18.47
2019-03-15T04:36:13.921Z,6.90
2019-03-15T04:38:42.295Z,19.07
2019-03-15T04:41:10.672Z,13.33
2019-03-15T04:43:39.064Z,14.00
2019-03-15T04:46:07.431Z,18.47
2019-03-15T04:48:35.806Z,13.23
2019-03-15T04:51:04.185Z,17.03
2019-03-15T04:53:32.564Z,13.47
2019-03-15T04:56:00.954Z,13.10
2019-03-15T04:58:29.328Z,19.57
2019-03-15T05:00:57.718Z,16.33
2019-03-15T05:03:26.095Z,17.97
2019-03-15T05:06:03.193Z,13.93
2019-03-15T05:08:24.584Z,17.40
2019-03-15T05:10:52.964Z,15.47
2019-03-15T05:13:21.360Z,18.43
2019-03-15T05:15:49.741Z,10.60
2019-03-15T05:18:18.123Z,13.17
2019-03-15T05:20:46.518Z,21.83
2019-03-15T05:23:14.889Z,22.40
2019-03-15T05:25:43.283Z,15.77
2019-03-15T05:28:11.657Z,11.97
2019-03-15T05:30:40.045Z,12.97
2019-03-15T05:33:08.411Z,18.83
2019-03-15T05:35:36.787Z,18.33
2019-03-15T05:38:05.184Z,14.90
2019-03-15T05:40:33.568Z,11.03
2019-03-15T05:43:01.944Z,7.70
2019-03-15T05:45:30.324Z,11.70
2019-03-15T05:47:58.717Z,4.03
2019-03-15T05:50:27.104Z,16.63
2019-03-15T05:52:55.469Z,6.67
2019-03-15T05:55:23.847Z,11.10
2019-03-15T05:57:52.703Z,5.07
2019-03-15T06:00:21.067Z,11.67
2019-03-15T06:02:49.457Z,16.67
2019-03-15T06:05:17.831Z,21.17
2019-03-15T06:07:46.235Z,15.70
2019-03-15T06:10:14.609Z,16.07
2019-03-15T06:12:42.985Z,13.20
2019-03-15T06:15:11.751Z,10.30
2019-03-15T06:17:40.130Z,6.93
2019-03-15T06:20:12.376Z,22.67
2019-03-15T06:22:40.753Z,12.50
2019-03-15T06:25:12.081Z,14.90
2019-03-15T06:27:40.463Z,19.17
2019-03-15T06:30:13.469Z,16.77
2019-03-15T06:32:41.856Z,15.67
2019-03-15T06:35:29.576Z,12.10
2019-03-15T06:37:57.968Z,18.33
2019-03-15T06:40:26.587Z,10.77
2019-03-15T06:42:54.967Z,14.60
2019-03-15T06:45:23.367Z,18.37
2019-03-15T06:47:51.735Z,14.20
2019-03-15T06:50:20.121Z,14.17
2019-03-15T06:52:48.503Z,16.93
2019-03-15T06:55:16.887Z,16.00
2019-03-15T06:57:45.268Z,7.77
2019-03-15T07:00:15.396Z,21.63
2019-03-15T07:02:43.861Z,15.90
2019-03-15T07:05:12.669Z,7.30
2019-03-15T07:07:41.197Z,4.43
2019-03-15T07:10:10.834Z,7.50
2019-03-15T07:12:40.410Z,9.60
2019-03-15T07:15:13.526Z,3.70
2019-03-15T07:17:42.012Z,8.63
2019-03-15T07:20:13.068Z,4.27
2019-03-15T07:22:41.448Z,6.57
2019-03-15T07:25:10.760Z,2.77
2019-03-15T07:27:42.290Z,2.03
2019-03-15T07:30:14.207Z,5.57
2019-03-15T07:32:42.596Z,6.20
2019-03-15T07:35:11.094Z,5.77
2019-03-15T07:37:39.471Z,5.90
2019-03-15T07:40:12.798Z,2.07
2019-03-15T07:42:41.170Z,5.07
2019-03-15T07:45:11.687Z,2.90
2019-03-15T07:47:40.064Z,1.87
2019-03-15T07:50:13.998Z,1.57
2019-03-15T07:52:41.683Z,2.10
2019-03-15T07:55:10.719Z,2.30
2019-03-15T07:57:39.151Z,1.60
2019-03-15T08:00:13.478Z,2.00
2019-03-15T08:02:41.899Z,1.73
2019-03-15T08:05:10.377Z,1.60
2019-03-15T08:07:44.685Z,1.83
2019-03-15T08:10:12.837Z,4.90
2019-03-15T08:12:41.291Z,2.90
2019-03-15T08:15:12.229Z,2.17
2019-03-15T08:17:40.649Z,1.93
2019-03-15T08:20:10.981Z,3.00
2019-03-15T08:22:39.351Z,1.97
2019-03-15T08:25:09.581Z,1.07
2019-03-15T08:27:37.952Z,1.70
2019-03-15T08:30:14.567Z,1.67
2019-03-15T08:32:43.904Z,1.37
2019-03-15T08:35:13.271Z,3.03
2019-03-15T08:37:41.662Z,2.10
2019-03-15T08:40:12.151Z,7.00
2019-03-15T08:42:40.528Z,1.77
2019-03-15T08:45:28.271Z,1.37
2019-03-15T08:47:56.646Z,3.87
2019-03-15T08:50:25.028Z,1.17
2019-03-15T08:52:54.279Z,1.53
2019-03-15T08:55:22.878Z,0.57
2019-03-15T08:57:51.256Z,0.80
2019-03-15T09:00:19.978Z,2.10
2019-03-15T09:02:48.397Z,4.73
2019-03-15T09:05:17.320Z,1.80
2019-03-15T09:07:45.703Z,1.07
2019-03-15T09:10:23.665Z,1.13
2019-03-15T09:12:50.563Z,1.20
2019-03-15T09:15:18.952Z,1.53
2019-03-15T09:17:47.334Z,1.00
2019-03-15T09:20:16.086Z,1.40
2019-03-15T09:22:44.840Z,0.70
2019-03-15T09:25:19.704Z,6.03
2019-03-15T09:27:45.916Z,2.40
2019-03-15T09:30:23.248Z,2.77
2019-03-15T09:32:45.715Z,9.53
2019-03-15T09:35:14.094Z,10.67
2019-03-15T09:37:42.472Z,5.73
2019-03-15T09:40:15.362Z,6.27
2019-03-15T09:42:43.740Z,4.60
2019-03-15T09:45:19.092Z,4.70
2019-03-15T09:47:47.516Z,4.83
2019-03-15T09:50:23.203Z,6.40
2019-03-15T09:52:46.623Z,8.20
2019-03-15T09:55:15.159Z,4.10
2019-03-15T09:57:43.554Z,5.73
2019-03-15T10:00:16.552Z,10.43
2019-03-15T10:02:45.405Z,9.67
2019-03-15T10:05:13.975Z,4.20
2019-03-15T10:07:43.794Z,8.03
2019-03-15T10:10:18.330Z,8.20
2019-03-15T10:12:45.959Z,6.60
2019-03-15T10:15:15.080Z,4.40
2019-03-15T10:17:43.464Z,5.67
2019-03-15T10:20:13.016Z,10.53
2019-03-15T10:22:41.462Z,6.03
2019-03-15T10:25:12.916Z,3.33
2019-03-15T10:27:41.298Z,13.93
2019-03-15T10:30:18.506Z,11.27
2019-03-15T10:32:46.866Z,9.23
2019-03-15T10:35:15.244Z,15.67
2019-03-15T10:37:43.644Z,14.80
2019-03-15T10:40:23.515Z,16.17
2019-03-15T10:42:55.168Z,12.17
2019-03-15T10:45:22.070Z,7.13
2019-03-15T10:47:50.455Z,7.27
2019-03-15T10:50:19.699Z,16.10
2019-03-15T10:52:48.110Z,21.70
2019-03-15T10:55:16.535Z,17.30
2019-03-15T10:57:44.992Z,22.20
2019-03-15T11:00:21.077Z,19.97
2019-03-15T11:02:49.594Z,13.57
2019-03-15T11:05:18.143Z,13.17
2019-03-15T11:07:46.548Z,8.00
2019-03-15T11:10:14.928Z,9.33
2019-03-15T11:12:43.321Z,11.10
2019-03-15T11:15:13.147Z,12.73
2019-03-15T11:17:41.551Z,10.23
2019-03-15T11:20:10.976Z,17.97
2019-03-15T11:22:39.362Z,11.20
2019-03-15T11:25:11.459Z,21.57
2019-03-15T11:27:39.831Z,13.93
2019-03-15T11:30:10.760Z,14.40
2019-03-15T11:32:39.227Z,7.97
2019-03-15T11:35:09.248Z,8.90
2019-03-15T11:37:37.644Z,12.47
2019-03-15T11:40:29.604Z,10.23
2019-03-15T11:42:57.991Z,38.77
2019-03-15T11:45:26.372Z,7.77
2019-03-15T11:48:03.243Z,12.80
2019-03-15T11:50:24.880Z,4.20
2019-03-15T11:52:53.265Z,10.60
2019-03-15T11:55:21.728Z,16.67
2019-03-15T11:57:50.104Z,11.80
2019-03-15T12:00:19.149Z,4.77
2019-03-15T12:03:06.855Z,5.70
2019-03-15T12:05:35.247Z,16.57
2019-03-15T12:08:03.625Z,7.30
2019-03-15T12:10:32.003Z,9.80
2019-03-15T12:13:00.466Z,6.13
2019-03-15T12:15:28.827Z,4.80
2019-03-15T12:17:57.215Z,5.23
2019-03-15T12:20:25.587Z,4.27
2019-03-15T12:23:05.713Z,9.53
2019-03-15T12:25:34.080Z,5.03
2019-03-15T12:28:02.491Z,7.30
2019-03-15T12:30:30.937Z,7.30
2019-03-15T12:32:59.318Z,13.27
2019-03-15T12:35:27.691Z,14.43
2019-03-15T12:37:56.075Z,6.73
2019-03-15T12:40:24.451Z,6.90
2019-03-15T12:42:52.832Z,3.53
2019-03-15T12:45:21.231Z,11.37
2019-03-15T12:47:49.607Z,8.50
2019-03-15T12:50:17.984Z,9.70
2019-03-15T12:52:47.965Z,4.27
2019-03-15T12:55:16.502Z,4.73
2019-03-15T12:57:44.935Z,7.37
2019-03-15T13:00:18.539Z,5.90
2019-03-15T13:02:47.155Z,4.00
2019-03-15T13:05:15.528Z,2.23
2019-03-15T13:07:43.916Z,13.47
2019-03-15T13:10:19.607Z,9.70
2019-03-15T13:12:48.049Z,3.37
2019-03-15T13:15:17.269Z,10.03
2019-03-15T13:17:45.649Z,3.73
2019-03-15T13:20:16.051Z,3.57
2019-03-15T13:22:44.426Z,11.43
2019-03-15T13:25:13.083Z,7.90
2019-03-15T13:27:41.531Z,7.27
2019-03-15T13:30:14.431Z,13.30
2019-03-15T13:32:42.813Z,6.03
2019-03-15T13:35:11.369Z,4.53
2019-03-15T13:37:42.662Z,10.33
2019-03-15T13:40:17.944Z,6.33
2019-03-15T13:42:46.320Z,3.13
2019-03-15T13:45:15.648Z,13.60
2019-03-15T13:47:44.040Z,5.70
2019-03-15T13:50:13.757Z,3.93
2019-03-15T13:52:42.132Z,2.33
2019-03-15T13:55:10.660Z,4.43
2019-03-15T13:57:39.055Z,2.57
2019-03-15T14:00:10.776Z,4.17
2019-03-15T14:02:39.143Z,8.80
2019-03-15T14:05:07.605Z,9.00
2019-03-15T14:07:35.987Z,2.93
2019-03-15T14:10:15.296Z,3.70
2019-03-15T14:12:43.667Z,3.60
2019-03-15T14:15:13.285Z,4.33
2019-03-15T14:17:41.899Z,5.40
2019-03-15T14:20:11.737Z,7.00
2019-03-15T14:22:40.113Z,5.10
2019-03-15T14:25:13.595Z,4.83
2019-03-15T14:27:41.983Z,7.17
2019-03-15T14:30:12.300Z,7.10
2019-03-15T14:32:40.687Z,4.80
2019-03-15T14:35:09.932Z,6.57
2019-03-15T14:37:38.325Z,4.80
2019-03-15T14:40:08.989Z,6.23
2019-03-15T14:42:37.471Z,6.47
2019-03-15T14:45:08.935Z,7.03
2019-03-15T14:47:37.328Z,6.47
2019-03-15T14:50:08.325Z,7.53
2019-03-15T14:52:36.720Z,4.93
2019-03-15T14:55:09.577Z,3.97
2019-03-15T14:57:50.512Z,2.30
2019-03-15T15:00:13.323Z,4.90
2019-03-15T15:02:41.725Z,5.40
2019-03-15T15:05:11.572Z,7.17
2019-03-15T15:07:39.951Z,6.77
2019-03-15T15:10:11.169Z,5.20
2019-03-15T15:12:39.618Z,8.43
2019-03-15T15:15:18.247Z,5.17
2019-03-15T15:17:46.631Z,5.60
2019-03-15T15:20:14.999Z,4.70
2019-03-15T15:22:43.395Z,3.90
2019-03-15T15:25:12.804Z,3.60
2019-03-15T15:27:41.187Z,7.30
2019-03-15T15:30:14.707Z,11.77
2019-03-15T15:32:43.115Z,10.47
2019-03-15T15:35:12.251Z,9.33
2019-03-15T15:37:40.622Z,8.87
2019-03-15T15:40:13.900Z,9.27
2019-03-15T15:42:42.273Z,8.70
2019-03-15T15:45:12.189Z,11.80
2019-03-15T15:47:40.584Z,3.20
2019-03-15T15:50:12.035Z,18.23
2019-03-15T15:52:40.423Z,9.40
2019-03-15T15:55:10.648Z,10.23
2019-03-15T15:57:39.026Z,5.60
2019-03-15T16:00:15.388Z,8.10
2019-03-15T16:02:43.761Z,6.43
2019-03-15T16:05:12.207Z,8.13
2019-03-15T16:07:40.590Z,2.63
2019-03-15T16:10:13.687Z,9.80
2019-03-15T16:12:42.143Z,5.00
2019-03-15T16:15:19.980Z,7.57
2019-03-15T16:17:48.342Z,5.47
2019-03-15T16:20:16.716Z,9.10
2019-03-15T16:22:45.104Z,6.30
2019-03-15T16:25:13.892Z,6.17
2019-03-15T16:27:42.269Z,6.83
2019-03-15T16:30:20.376Z,3.37
2019-03-15T16:32:48.772Z,4.23
2019-03-15T16:35:17.256Z,9.63
2019-03-15T16:37:45.592Z,3.47
2019-03-15T16:40:15.006Z,6.83
2019-03-15T16:42:43.380Z,8.17
2019-03-15T16:45:16.795Z,2.37
2019-03-15T16:47:45.186Z,5.57
2019-03-15T16:50:14.204Z,3.40
2019-03-15T16:52:42.593Z,3.73
2019-03-15T16:55:12.024Z,4.20
2019-03-15T16:57:40.466Z,5.97
2019-03-15T17:00:14.751Z,3.93
2019-03-15T17:02:43.155Z,2.47
2019-03-15T17:05:12.584Z,1.67
2019-03-15T17:07:41.032Z,5.20
2019-03-15T17:10:12.207Z,3.50
2019-03-15T17:12:40.591Z,1.63
2019-03-15T17:15:22.491Z,1.27
2019-03-15T17:17:50.877Z,1.40
2019-03-15T17:20:19.320Z,3.37
2019-03-15T17:22:47.693Z,3.63
2019-03-15T17:25:16.071Z,2.13
2019-03-15T17:27:44.461Z,1.40
2019-03-15T17:30:14.178Z,5.00
2019-03-15T17:32:42.551Z,3.93
2019-03-15T17:35:17.406Z,2.03
2019-03-15T17:37:46.104Z,3.37
2019-03-15T17:40:21.066Z,3.53
2019-03-15T17:42:49.603Z,1.17
2019-03-15T17:45:17.993Z,4.40
2019-03-15T17:47:46.927Z,3.03
2019-03-15T17:50:22.716Z,2.73
2019-03-15T17:52:51.079Z,4.20
2019-03-15T17:55:19.623Z,3.20
2019-03-15T17:57:48.008Z,1.57
2019-03-15T18:00:50.406Z,4.97
2019-03-15T18:03:21.792Z,1.93
2019-03-15T18:05:49.520Z,5.53
2019-03-15T18:08:17.887Z,2.77
2019-03-15T18:10:46.279Z,0.20
2019-03-15T18:13:14.652Z,2.07
2019-03-15T18:15:43.032Z,4.00
2019-03-15T18:18:11.471Z,0.87
2019-03-15T18:20:39.855Z,3.30
2019-03-15T18:23:08.233Z,3.60
2019-03-15T18:25:36.612Z,3.17
2019-03-15T18:28:05.131Z,4.00
2019-03-15T18:30:33.509Z,1.73
2019-03-15T18:33:01.895Z,2.37
2019-03-15T18:35:33.865Z,7.53
2019-03-15T18:38:00.683Z,2.60
2019-03-15T18:40:29.072Z,1.70
2019-03-15T18:42:57.452Z,0.53
2019-03-15T18:45:25.831Z,0.30
2019-03-15T18:47:54.204Z,0.30
2019-03-15T18:50:29.373Z,0.30
2019-03-15T18:52:57.775Z,0.30
2019-03-15T18:55:26.139Z,0.30
2019-03-15T18:57:54.527Z,0.30
2019-03-15T19:00:24.343Z,0.33
2019-03-15T19:02:52.735Z,1.13
2019-03-15T19:05:21.113Z,0.20
2019-03-15T19:07:49.479Z,0.60
2019-03-15T19:10:17.923Z,0.80
2019-03-15T19:12:46.321Z,1.27
2019-03-15T19:15:19.931Z,0.43
2019-03-15T19:17:48.303Z,0.30
2019-03-15T19:20:17.360Z,0.30
2019-03-15T19:22:46.052Z,0.30
2019-03-15T19:25:15.489Z,0.30
2019-03-15T19:27:43.863Z,0.50
2019-03-15T19:30:13.876Z,0.30
2019-03-15T19:32:42.347Z,0.30
2019-03-15T19:35:10.719Z,2.70
2019-03-15T19:37:39.098Z,0.30
2019-03-15T19:40:14.651Z,0.40
2019-03-15T19:42:45.243Z,0.30
2019-03-15T19:45:19.312Z,0.30
2019-03-15T19:47:47.687Z,0.30
2019-03-15T19:50:20.912Z,0.40
2019-03-15T19:52:49.637Z,0.70
2019-03-15T19:55:18.012Z,0.63
2019-03-15T19:57:46.562Z,0.27
2019-03-15T20:00:19.864Z,0.20
2019-03-15T20:02:48.239Z,1.10
2019-03-15T20:05:16.607Z,0.30
2019-03-15T20:07:45.183Z,0.30
2019-03-15T20:10:17.433Z,0.60
2019-03-15T20:12:46.592Z,8.03
2019-03-15T20:15:16.076Z,1.90
2019-03-15T20:17:44.472Z,0.30
2019-03-15T20:20:13.897Z,0.93
2019-03-15T20:22:42.283Z,3.33
2019-03-15T20:25:13.265Z,0.50
2019-03-15T20:27:41.639Z,0.50
2019-03-15T20:30:25.952Z,0.30
2019-03-15T20:32:51.267Z,2.13
2019-03-15T20:35:19.722Z,1.67
2019-03-15T20:37:48.171Z,0.97
2019-03-15T20:40:16.624Z,0.50
2019-03-15T20:42:44.987Z,0.87
2019-03-15T20:45:29.967Z,0.40
2019-03-15T20:47:58.340Z,0.57
2019-03-15T20:50:26.973Z,1.20
2019-03-15T20:53:07.875Z,0.40
2019-03-15T20:55:28.417Z,1.10
2019-03-15T20:57:55.618Z,1.50
2019-03-15T21:00:34.873Z,1.23
2019-03-15T21:02:54.123Z,1.13
2019-03-15T21:05:22.496Z,0.57
2019-03-15T21:07:50.868Z,1.70
2019-03-15T21:10:22.236Z,0.80
2019-03-15T21:12:50.605Z,0.63
2019-03-15T21:15:19.064Z,0.70
2019-03-15T21:17:47.508Z,2.10
2019-03-15T21:20:18.088Z,2.40
2019-03-15T21:22:46.481Z,0.30
2019-03-15T21:25:15.015Z,0.63
2019-03-15T21:27:53.448Z,7.40
2019-03-15T21:30:22.299Z,2.73
2019-03-15T21:32:50.748Z,0.93
2019-03-15T21:35:19.126Z,0.73
2019-03-15T21:37:47.563Z,0.50
2019-03-15T21:40:20.111Z,0.70
2019-03-15T21:42:48.493Z,2.40
2019-03-15T21:45:16.859Z,2.93
2019-03-15T21:47:45.244Z,0.50
2019-03-15T21:50:21.531Z,3.20
2019-03-15T21:52:49.986Z,25.87
2019-03-15T21:55:18.360Z,11.73
2019-03-15T21:57:46.746Z,20.07
2019-03-15T22:00:16.259Z,13.13
2019-03-15T22:02:44.635Z,11.17
2019-03-15T22:05:13.019Z,15.40
2019-03-15T22:07:41.395Z,6.33
2019-03-15T22:10:11.924Z,13.60
2019-03-15T22:12:40.315Z,13.30
2019-03-15T22:15:12.987Z,6.37
2019-03-15T22:17:41.502Z,4.40
2019-03-15T22:20:19.366Z,9.67
2019-03-15T22:22:47.765Z,9.80
2019-03-15T22:25:16.144Z,11.90
2019-03-15T22:27:44.532Z,8.63
2019-03-15T22:30:13.947Z,12.73
2019-03-15T22:32:43.180Z,11.77
2019-03-15T22:35:11.992Z,19.93
2019-03-15T22:37:40.379Z,7.97
2019-03-15T22:40:12.735Z,15.30
2019-03-15T22:42:41.111Z,27.10
2019-03-15T22:45:10.936Z,15.43
2019-03-15T22:47:39.318Z,13.60
2019-03-15T22:50:14.503Z,12.27
2019-03-15T22:52:42.871Z,17.07
2019-03-15T22:55:11.801Z,13.83
2019-03-15T22:57:40.443Z,6.70
2019-03-15T23:00:19.043Z,11.10
2019-03-15T23:02:47.427Z,5.77
2019-03-15T23:05:15.877Z,14.87
2019-03-15T23:07:44.323Z,12.93
2019-03-15T23:10:12.773Z,10.80
2019-03-15T23:12:41.139Z,6.37
2019-03-15T23:15:10.963Z,10.33
2019-03-15T23:17:39.333Z,8.60
2019-03-15T23:20:14.700Z,15.20
2019-03-15T23:22:43.071Z,7.37
2019-03-15T23:25:11.444Z,7.90
2019-03-15T23:27:39.823Z,11.17
2019-03-15T23:30:13.911Z,6.03
2019-03-15T23:32:42.288Z,7.73
2019-03-15T23:35:10.740Z,10.97
2019-03-15T23:37:39.114Z,13.80
2019-03-15T23:40:09.416Z,10.50
2019-03-15T23:42:37.803Z,13.33
2019-03-15T23:45:10.955Z,9.67
2019-03-15T23:47:39.319Z,6.87
2019-03-15T23:50:10.772Z,8.93
2019-03-15T23:52:39.146Z,12.17
2019-03-15T23:55:07.951Z,7.33
2019-03-15T23:57:36.331Z,17.57
